Time;durP1;ratioP1;P1;durP2;ratioP2;P2;SDS_P1;SDS_P2;PMS_P1;PMS_P2;Temp;Humidity;BMP_temperature;BMP_pressure;BME280_temperature;BME280_humidity;BME280_pressure;Samples;Min_cycle;Max_cycle;Signal;HPM_P1;HPM_P2
2021/09/19 00:00:46;;;;;;;5.45;4.35;;;;;;;12.83;74.09;100267.47;5036073;28;20046;-59
2021/09/19 00:03:13;;;;;;;5.80;4.53;;;;;;;12.78;74.31;100274.88;5035992;28;20049;-59
2021/09/19 00:05:41;;;;;;;5.68;4.70;;;;;;;12.78;74.72;100271.28;5036202;28;20052;-60
2021/09/19 00:08:08;;;;;;;5.70;4.90;;;;;;;12.78;74.57;100274.88;5036613;28;20045;-60
2021/09/19 00:10:36;;;;;;;5.65;4.60;;;;;;;12.75;74.43;100274.75;5036098;28;20398;-60
2021/09/19 00:13:03;;;;;;;9.05;4.85;;;;;;;12.70;74.59;100266.53;5036578;28;20065;-59
2021/09/19 00:15:32;;;;;;;8.90;5.05;;;;;;;12.68;74.76;100266.91;5036206;28;20049;-60
2021/09/19 00:17:59;;;;;;;7.73;5.33;;;;;;;12.64;74.74;100265.94;5036158;28;20060;-59
2021/09/19 00:20:29;;;;;;;7.75;5.38;;;;;;;12.59;74.57;100264.09;5035935;28;20482;-59
2021/09/19 00:22:56;;;;;;;7.07;5.50;;;;;;;12.57;74.79;100269.22;5035433;28;20064;-60
2021/09/19 00:25:24;;;;;;;8.10;5.50;;;;;;;12.57;74.80;100266.41;5035298;28;20049;-59
2021/09/19 00:27:52;;;;;;;6.75;5.40;;;;;;;12.55;74.78;100268.72;5036189;28;20060;-59
2021/09/19 00:30:19;;;;;;;5.82;4.90;;;;;;;12.54;75.00;100258.72;5036023;28;20376;-60
2021/09/19 00:32:48;;;;;;;7.10;4.95;;;;;;;12.53;75.09;100254.25;5036106;28;20069;-59
2021/09/19 00:35:16;;;;;;;6.88;5.13;;;;;;;12.52;74.66;100261.00;5035976;28;20077;-59
2021/09/19 00:37:44;;;;;;;6.05;5.05;;;;;;;12.47;74.62;100260.34;5035427;28;20049;-60
2021/09/19 00:40:13;;;;;;;6.45;4.93;;;;;;;12.46;74.81;100255.94;5034749;28;20057;-59
2021/09/19 00:42:41;;;;;;;7.13;6.07;;;;;;;12.45;74.95;100243.13;5035543;28;20053;-59
2021/09/19 00:45:11;;;;;;;7.07;5.20;;;;;;;12.44;74.89;100247.88;5035423;28;20053;-60
2021/09/19 00:47:39;;;;;;;9.88;5.47;;;;;;;12.46;74.90;100248.38;5035715;28;20386;-59
2021/09/19 00:50:10;;;;;;;6.30;5.32;;;;;;;12.46;74.99;100253.16;5035599;28;20057;-59
2021/09/19 00:52:40;;;;;;;5.55;4.75;;;;;;;12.44;74.75;100247.06;5035604;28;20060;-58
2021/09/19 00:55:09;;;;;;;5.80;5.15;;;;;;;12.38;74.59;100252.00;5035083;28;20061;-60
2021/09/19 00:57:39;;;;;;;6.38;5.22;;;;;;;12.36;75.07;100248.72;5035433;28;20445;-60
2021/09/19 01:00:11;;;;;;;9.32;5.72;;;;;;;12.34;74.96;100246.25;5035414;28;20050;-59
2021/09/19 01:02:38;;;;;;;7.50;5.72;;;;;;;12.32;74.82;100254.16;5034402;28;20053;-60
2021/09/19 01:05:10;;;;;;;8.68;5.93;;;;;;;12.21;75.27;100246.47;5035085;28;20068;-60
2021/09/19 01:07:37;;;;;;;7.82;5.78;;;;;;;12.24;75.28;100246.63;5034753;28;20379;-60
2021/09/19 01:10:08;;;;;;;6.57;5.63;;;;;;;12.24;75.34;100251.38;5034864;28;20106;-61
2021/09/19 01:12:36;;;;;;;7.40;5.53;;;;;;;12.19;75.34;100247.59;5035370;28;20054;-60
2021/09/19 01:15:05;;;;;;;8.25;6.40;;;;;;;12.15;75.03;100255.00;5034792;28;20410;-60
2021/09/19 01:17:32;;;;;;;8.27;5.90;;;;;;;12.15;75.04;100251.38;5034803;28;20057;-60
2021/09/19 01:20:00;;;;;;;8.35;5.53;;;;;;;12.14;75.32;100252.56;5034844;28;20049;-61
2021/09/19 01:22:33;;;;;;;8.50;5.65;;;;;;;12.12;74.73;100254.84;5034830;28;20049;-60
2021/09/19 01:25:05;;;;;;;7.43;5.18;;;;;;;12.10;75.01;100251.56;5034644;28;20128;-61
2021/09/19 01:27:33;;;;;;;8.95;5.03;;;;;;;12.14;74.64;100247.78;5034669;28;20053;-60
2021/09/19 01:30:01;;;;;;;6.07;5.07;;;;;;;12.08;74.87;100251.09;5034902;28;20060;-60
2021/09/19 01:32:28;;;;;;;6.18;5.15;;;;;;;11.99;75.12;100245.50;5034592;28;20068;-60
2021/09/19 01:34:56;;;;;;;7.45;5.38;;;;;;;12.00;75.22;100257.50;5034857;28;20053;-60
2021/09/19 01:37:23;;;;;;;6.78;5.30;;;;;;;11.97;75.00;100250.59;5035014;28;20057;-60
2021/09/19 01:39:52;;;;;;;7.55;5.43;;;;;;;11.95;74.88;100245.34;5034490;28;20398;-60
2021/09/19 01:42:23;;;;;;;6.00;5.40;;;;;;;12.00;74.96;100251.91;5034267;28;20478;-60
2021/09/19 01:44:51;;;;;;;9.45;5.57;;;;;;;11.91;74.92;100249.94;5034478;28;20505;-61
2021/09/19 01:47:18;;;;;;;8.75;5.55;;;;;;;11.92;75.04;100243.19;5034450;28;20061;-61
2021/09/19 01:49:47;;;;;;;7.97;5.95;;;;;;;11.93;75.35;100236.47;5034347;28;20429;-60
2021/09/19 01:52:21;;;;;;;6.85;5.30;;;;;;;11.96;75.25;100235.00;5034675;28;20412;-60
2021/09/19 01:54:49;;;;;;;8.48;5.93;;;;;;;11.95;75.21;100234.19;5034086;28;20061;-61
2021/09/19 01:57:19;;;;;;;7.03;6.15;;;;;;;11.95;75.43;100234.19;5032984;28;20053;-60
2021/09/19 01:59:51;;;;;;;6.97;5.20;;;;;;;11.92;75.47;100231.22;5033985;28;20057;-60
2021/09/19 02:02:20;;;;;;;6.43;5.53;;;;;;;11.92;75.10;100222.84;5033914;28;20068;-61
2021/09/19 02:04:49;;;;;;;9.05;6.63;;;;;;;11.88;75.31;100224.63;5034329;28;20054;-61
2021/09/19 02:07:17;;;;;;;9.15;6.68;;;;;;;11.85;75.45;100222.50;5034124;28;20054;-60
2021/09/19 02:09:44;;;;;;;7.65;6.30;;;;;;;11.84;75.60;100218.06;5033720;28;20060;-60
2021/09/19 02:12:14;;;;;;;8.32;6.03;;;;;;;11.82;75.58;100218.38;5033878;28;20049;-59
2021/09/19 02:14:42;;;;;;;9.65;6.03;;;;;;;11.78;75.67;100212.66;5034186;28;20068;-60
2021/09/19 02:17:11;;;;;;;8.02;6.38;;;;;;;11.81;75.61;100218.72;5033850;28;20050;-60
2021/09/19 02:19:39;;;;;;;;;;;;;;;11.74;76.10;100220.03;5034467;28;20049;-60
2021/09/19 02:22:10;;;;;;;6.63;5.95;;;;;;;11.76;75.61;100220.53;5033822;28;19921;-60
2021/09/19 02:24:37;;;;;;;8.95;6.50;;;;;;;11.74;75.47;100214.47;5033507;28;20049;-60
2021/09/19 02:27:05;;;;;;;9.38;6.40;;;;;;;11.73;75.29;100212.00;5033335;28;20096;-60
2021/09/19 02:29:33;;;;;;;9.75;6.55;;;;;;;11.69;75.60;100211.81;5033740;28;20049;-61
2021/09/19 02:32:00;;;;;;;8.50;6.05;;;;;;;11.64;75.52;100205.59;5033673;28;20049;-60
2021/09/19 02:34:29;;;;;;;9.25;6.35;;;;;;;11.66;75.74;100209.69;5033982;28;20050;-61
2021/09/19 02:36:56;;;;;;;10.48;6.25;;;;;;;11.65;75.51;100221.19;5032224;28;20064;-61
2021/09/19 02:39:24;;;;;;;7.80;6.00;;;;;;;11.63;75.43;100220.69;5032312;28;20045;-61
2021/09/19 02:41:51;;;;;;;8.05;6.05;;;;;;;11.64;75.44;100216.75;5033633;28;20057;-60
2021/09/19 02:44:18;;;;;;;9.50;6.47;;;;;;;11.61;75.44;100218.22;5034194;28;20056;-60
2021/09/19 02:46:46;;;;;;;7.80;6.20;;;;;;;11.60;75.07;100210.19;5033456;28;20053;-61
2021/09/19 02:49:14;;;;;;;8.40;5.75;;;;;;;11.51;75.59;100207.41;5033010;28;20049;-62
2021/09/19 02:51:43;;;;;;;8.45;5.90;;;;;;;11.56;75.62;100210.81;5033399;28;20057;-62
2021/09/19 02:54:10;;;;;;;8.70;5.80;;;;;;;11.55;75.79;100209.19;5033466;28;20041;-62
2021/09/19 02:56:37;;;;;;;8.57;5.70;;;;;;;11.56;75.95;100207.22;5033605;28;20485;-61
2021/09/19 02:59:05;;;;;;;8.32;5.60;;;;;;;11.57;75.60;100204.13;5033511;28;20060;-61
2021/09/19 03:01:32;;;;;;;16.77;6.28;;;;;;;11.60;75.79;100201.81;5033208;28;20054;-61
2021/09/19 03:03:59;;;;;;;7.10;5.53;;;;;;;11.59;75.81;100195.44;5034073;28;20072;-61
2021/09/19 03:06:27;;;;;;;8.15;5.82;;;;;;;11.56;75.31;100199.69;5032888;28;20505;-62
2021/09/19 03:08:55;;;;;;;6.55;5.70;;;;;;;11.58;75.55;100202.13;5033489;28;20041;-61
2021/09/19 03:11:23;;;;;;;8.00;6.47;;;;;;;11.56;75.27;100204.44;5033121;28;20485;-61
2021/09/19 03:13:50;;;;;;;7.93;5.60;;;;;;;11.55;75.34;100205.59;5033363;28;20056;-61
2021/09/19 03:16:17;;;;;;;7.82;5.88;;;;;;;11.48;75.38;100203.28;5032971;28;20060;-61
2021/09/19 03:18:45;;;;;;;8.23;5.70;;;;;;;11.43;75.77;100199.84;5033343;28;20396;-62
2021/09/19 03:21:12;;;;;;;8.38;6.15;;;;;;;11.45;75.67;100197.56;5033316;28;20065;-61
2021/09/19 03:23:39;;;;;;;6.68;5.05;;;;;;;11.47;75.74;100195.25;5032654;28;20057;-60
2021/09/19 03:26:08;;;;;;;6.35;5.53;;;;;;;11.47;75.74;100196.06;5033331;28;20065;-62
2021/09/19 03:28:36;;;;;;;8.40;5.57;;;;;;;11.43;75.54;100197.06;5033413;28;20446;-62
2021/09/19 03:31:03;;;;;;;8.60;6.22;;;;;;;11.42;75.27;100195.41;5032656;28;20057;-61
2021/09/19 03:33:30;;;;;;;6.45;5.63;;;;;;;11.43;75.51;100202.63;5033155;28;20053;-61
2021/09/19 03:35:58;;;;;;;8.18;5.50;;;;;;;11.42;75.37;100201.78;5032905;28;20459;-61
2021/09/19 03:38:25;;;;;;;8.18;6.03;;;;;;;11.35;75.78;100202.28;5032285;28;20518;-61
2021/09/19 03:40:52;;;;;;;7.10;5.63;;;;;;;11.40;75.54;100201.28;5033075;28;20060;-61
2021/09/19 03:43:21;;;;;;;7.53;5.22;;;;;;;11.46;75.47;100202.78;5033369;28;20049;-61
2021/09/19 03:45:49;;;;;;;8.65;5.95;;;;;;;11.43;75.56;100202.63;5033122;28;20085;-61
2021/09/19 03:48:17;;;;;;;7.85;5.45;;;;;;;11.44;75.05;100204.25;5032713;28;20050;-61
2021/09/19 03:50:45;;;;;;;8.98;5.97;;;;;;;11.41;75.35;100199.34;5032940;28;20053;-62
2021/09/19 03:53:13;;;;;;;7.07;6.15;;;;;;;11.39;75.41;100202.47;5032448;28;20050;-61
2021/09/19 03:55:40;;;;;;;6.93;5.80;;;;;;;11.39;75.59;100199.66;5032764;28;20383;-61
2021/09/19 03:58:08;;;;;;;10.57;6.10;;;;;;;11.38;75.66;100204.44;5032899;28;20471;-61
2021/09/19 04:00:37;;;;;;;9.55;5.93;;;;;;;11.38;75.12;100204.44;5032553;28;20410;-61
2021/09/19 04:03:04;;;;;;;8.10;5.70;;;;;;;11.34;75.14;100192.28;5032889;28;20057;-62
2021/09/19 04:05:32;;;;;;;9.30;5.78;;;;;;;11.36;75.24;100203.94;5033062;28;20061;-61
2021/09/19 04:07:59;;;;;;;8.80;6.35;;;;;;;11.35;75.35;100205.06;5032892;28;20053;-61
2021/09/19 04:10:27;;;;;;;8.85;5.32;;;;;;;11.36;75.10;100208.69;5032339;28;20053;-61
2021/09/19 04:12:54;;;;;;;7.82;5.35;;;;;;;11.34;75.20;100209.03;5032755;28;20050;-61
2021/09/19 04:15:22;;;;;;;7.85;5.22;;;;;;;11.34;75.18;100206.22;5032562;28;20045;-61
2021/09/19 04:17:51;;;;;;;9.27;6.30;;;;;;;11.33;74.88;100212.94;5032495;28;20064;-62
2021/09/19 04:20:19;;;;;;;6.70;5.07;;;;;;;11.33;74.74;100204.56;5036479;28;20053;-61
2021/09/19 04:22:46;;;;;;;6.68;5.32;;;;;;;11.32;75.04;100211.31;5036331;28;20053;-62
2021/09/19 04:25:13;;;;;;;9.90;5.40;;;;;;;11.28;74.96;100210.31;5035424;28;20068;-61
2021/09/19 04:27:41;;;;;;;9.25;5.75;;;;;;;11.30;75.45;100212.78;5036018;28;20060;-61
2021/09/19 04:30:10;;;;;;;6.57;5.03;;;;;;;11.30;75.05;100208.03;5036222;28;20057;-60
2021/09/19 04:32:38;;;;;;;8.77;6.07;;;;;;;11.25;74.92;100204.56;5036316;28;20056;-61
2021/09/19 04:35:07;;;;;;;7.45;5.82;;;;;;;11.24;75.19;100203.75;5036075;28;20050;-61
2021/09/19 04:37:35;;;;;;;10.77;6.45;;;;;;;11.26;74.82;100201.47;5035724;28;20464;-61
2021/09/19 04:40:02;;;;;;;10.52;5.90;;;;;;;11.17;75.16;100204.25;5035337;28;20053;-61
2021/09/19 04:42:30;;;;;;;9.18;6.03;;;;;;;11.17;75.31;100201.47;5035942;28;20056;-61
2021/09/19 04:44:57;;;;;;;10.68;6.70;;;;;;;11.16;75.43;100201.78;5035880;28;20057;-61
2021/09/19 04:47:24;;;;;;;8.90;6.40;;;;;;;11.19;75.17;100203.91;5035902;28;20072;-61
2021/09/19 04:49:52;;;;;;;8.32;6.30;;;;;;;11.20;75.30;100201.94;5035573;28;20060;-62
2021/09/19 04:52:21;;;;;;;6.63;5.53;;;;;;;11.18;75.20;100199.47;5035316;28;20049;-61
2021/09/19 04:54:49;;;;;;;7.07;5.50;;;;;;;11.13;75.26;100196.84;5035180;28;20049;-61
2021/09/19 04:57:16;;;;;;;8.05;5.97;;;;;;;11.14;75.02;100199.31;5035804;28;20054;-61
2021/09/19 04:59:43;;;;;;;7.45;5.93;;;;;;;11.12;75.01;100207.16;5035410;28;20060;-61
2021/09/19 05:02:11;;;;;;;9.73;5.60;;;;;;;11.15;74.87;100197.34;5035189;28;20052;-61
2021/09/19 05:04:38;;;;;;;8.90;5.45;;;;;;;11.11;75.03;100199.97;5035151;28;20050;-61
2021/09/19 05:07:05;;;;;;;9.50;5.80;;;;;;;11.09;75.08;100201.44;5035148;28;20064;-61
2021/09/19 05:09:34;;;;;;;8.65;6.63;;;;;;;11.11;74.92;100199.97;5035395;28;20057;-60
2021/09/19 05:12:04;;;;;;;7.82;6.72;;;;;;;11.10;74.87;100200.28;5034504;28;20426;-61
2021/09/19 05:14:31;;;;;;;7.45;6.05;;;;;;;11.09;74.62;100201.44;5017080;28;20064;-61
2021/09/19 05:16:58;;;;;;;7.68;5.75;;;;;;;11.11;74.71;100208.31;5035016;28;20477;-61
2021/09/19 05:19:25;;;;;;;7.55;5.95;;;;;;;11.14;74.72;100209.63;5034810;28;20064;-61
2021/09/19 05:21:53;;;;;;;9.45;6.05;;;;;;;11.17;74.61;100214.53;5034853;28;20054;-61
2021/09/19 05:24:20;;;;;;;9.23;6.18;;;;;;;11.17;74.66;100220.13;5034488;28;20510;-61
2021/09/19 05:26:49;;;;;;;10.45;6.15;;;;;;;11.16;74.51;100212.91;5034879;28;20050;-62
2021/09/19 05:29:16;;;;;;;11.23;6.38;;;;;;;11.17;74.80;100214.53;5034726;28;20478;-61
2021/09/19 05:31:44;;;;;;;7.18;5.90;;;;;;;11.19;74.66;100223.41;5034814;28;20053;-61
2021/09/19 05:34:11;;;;;;;7.68;5.57;;;;;;;11.18;74.50;100217.03;5035220;28;20072;-61
2021/09/19 05:36:38;;;;;;;7.18;5.68;;;;;;;11.23;74.34;100218.81;5034808;28;20053;-61
2021/09/19 05:39:06;;;;;;;6.50;5.35;;;;;;;11.25;74.41;100219.31;5034293;28;20060;-62
2021/09/19 05:41:33;;;;;;;7.15;5.38;;;;;;;11.26;74.22;100228.53;5034464;28;20054;-62
2021/09/19 05:44:02;;;;;;;7.78;5.97;;;;;;;11.17;74.49;100220.97;5034860;28;20057;-61
2021/09/19 05:46:29;;;;;;;7.87;5.30;;;;;;;11.28;74.34;100223.44;5034402;28;20057;-61
2021/09/19 05:48:59;;;;;;;7.28;5.28;;;;;;;11.34;74.35;100220.19;5034697;28;20053;-62
2021/09/19 05:51:26;;;;;;;10.23;5.93;;;;;;;11.40;74.25;100211.63;5034233;28;20049;-62
2021/09/19 05:53:54;;;;;;;7.47;4.88;;;;;;;11.46;74.10;100205.56;5033958;28;20045;-62
2021/09/19 05:56:21;;;;;;;7.53;5.60;;;;;;;11.52;74.20;100209.84;5034202;28;20049;-61
2021/09/19 05:58:48;;;;;;;9.10;5.22;;;;;;;11.58;73.62;100213.31;5034705;28;20053;-61
2021/09/19 06:01:17;;;;;;;6.88;4.95;;;;;;;11.61;73.96;100209.03;5034217;28;20076;-61
2021/09/19 06:03:45;;;;;;;7.87;5.60;;;;;;;11.59;73.86;100209.38;5034252;28;20046;-61
2021/09/19 06:06:12;;;;;;;7.55;5.43;;;;;;;11.64;73.93;100225.94;5034050;28;20464;-62
2021/09/19 06:08:39;;;;;;;9.07;6.07;;;;;;;11.75;73.58;100218.88;5033585;28;20053;-60
2021/09/19 06:11:07;;;;;;;8.05;5.93;;;;;;;11.87;73.67;100228.56;5033980;28;20490;-61
2021/09/19 06:13:34;;;;;;;7.95;5.57;;;;;;;11.94;73.59;100226.94;5030789;28;20056;-61
2021/09/19 06:16:01;;;;;;;9.38;5.93;;;;;;;12.03;73.66;100232.50;5027968;28;20049;-61
2021/09/19 06:18:31;;;;;;;7.35;5.88;;;;;;;12.15;73.89;100237.44;5034048;28;20060;-61
2021/09/19 06:21:01;;;;;;;;;;;;;;;12.34;73.20;100235.09;5031892;28;20041;-62
2021/09/19 06:23:30;;;;;;;8.30;5.00;;;;;;;12.57;73.21;100241.25;5021526;28;19921;-62
2021/09/19 06:25:57;;;;;;;6.15;4.75;;;;;;;12.71;72.81;100229.88;5033349;28;20064;-62
2021/09/19 06:28:25;;;;;;;7.72;4.78;;;;;;;12.76;72.60;100228.88;5033954;28;20057;-61
2021/09/19 06:30:52;;;;;;;8.18;5.35;;;;;;;12.81;72.68;100223.13;5032788;28;20053;-61
2021/09/19 06:33:20;;;;;;;7.78;5.40;;;;;;;12.86;72.41;100233.28;5034053;28;20045;-62
2021/09/19 06:35:49;;;;;;;6.47;5.80;;;;;;;12.93;72.06;100226.00;5033790;28;20049;-61
2021/09/19 06:38:17;;;;;;;7.53;5.50;;;;;;;12.97;72.15;100221.38;5033879;28;20061;-61
2021/09/19 06:40:44;;;;;;;6.75;5.47;;;;;;;13.05;72.24;100230.06;5032933;28;20064;-62
2021/09/19 06:43:11;;;;;;;8.23;6.05;;;;;;;13.19;72.74;100225.06;5033115;28;20061;-61
2021/09/19 06:45:38;;;;;;;6.65;5.47;;;;;;;13.44;72.17;100230.81;5032245;28;20054;-61
2021/09/19 06:48:06;;;;;;;8.35;5.55;;;;;;;13.90;72.24;100226.19;5033164;28;20053;-61
2021/09/19 06:50:33;;;;;;;6.15;4.95;;;;;;;14.85;69.54;100224.38;5033291;28;20054;-61
2021/09/19 06:53:02;;;;;;;5.05;4.55;;;;;;;16.03;65.57;100232.88;5033800;28;20053;-61
2021/09/19 06:55:30;;;;;;;5.45;4.13;;;;;;;17.16;62.27;100225.03;5023260;28;20503;-61
2021/09/19 06:57:57;;;;;;;4.10;3.45;;;;;;;18.24;59.58;100219.75;5031439;28;20057;-61
2021/09/19 07:00:27;;;;;;;5.97;3.60;;;;;;;19.40;56.55;100220.59;5032762;28;20119;-61
2021/09/19 07:02:54;;;;;;;3.97;3.00;;;;;;;20.70;52.87;100217.34;5032949;28;20052;-62
2021/09/19 07:05:22;;;;;;;3.88;3.20;;;;;;;21.83;49.65;100212.91;5033257;28;20387;-62
2021/09/19 07:07:50;;;;;;;3.97;2.88;;;;;;;22.86;46.27;100214.44;5033422;28;20053;-60
2021/09/19 07:10:18;;;;;;;4.18;3.13;;;;;;;23.79;43.72;100212.75;5033177;28;20054;-61
2021/09/19 07:12:46;;;;;;;3.65;2.90;;;;;;;24.68;41.78;100206.63;5033382;28;20451;-61
2021/09/19 07:15:13;;;;;;;3.20;2.80;;;;;;;25.57;39.95;100198.50;5024843;28;20061;-61
2021/09/19 07:17:41;;;;;;;4.47;2.80;;;;;;;26.36;38.14;100211.03;5023782;28;20501;-61
2021/09/19 07:20:09;;;;;;;3.10;2.80;;;;;;;27.02;36.49;100199.00;5032731;28;20065;-61
2021/09/19 07:22:40;;;;;;;3.03;2.72;;;;;;;27.62;35.53;100202.03;5032092;28;20054;-61
2021/09/19 07:25:08;;;;;;;4.30;2.85;;;;;;;27.29;35.74;100207.53;5035469;28;20512;-63
2021/09/19 07:27:37;;;;;;;4.38;2.80;;;;;;;27.23;35.84;100211.34;5035576;28;20386;-60
2021/09/19 07:30:06;;;;;;;3.80;2.75;;;;;;;26.74;36.65;100214.56;5029969;28;20411;-60
2021/09/19 07:32:34;;;;;;;;;;;;;;;26.07;37.78;100211.41;5031502;28;20462;-60
2021/09/19 07:35:02;;;;;;;3.65;2.80;;;;;;;26.00;38.26;100214.38;5031343;28;19921;-60
2021/09/19 07:37:31;;;;;;;6.90;3.03;;;;;;;25.60;39.28;100205.41;5031006;28;20045;-61
2021/09/19 07:39:59;;;;;;;3.63;2.70;;;;;;;25.79;39.33;100204.78;5031933;28;20054;-60
2021/09/19 07:42:27;;;;;;;4.50;2.63;;;;;;;26.31;38.28;100206.59;5028420;28;20466;-60
2021/09/19 07:44:56;;;;;;;3.00;2.50;;;;;;;26.59;37.79;100211.13;5026780;28;20053;-61
2021/09/19 07:47:26;;;;;;;2.70;2.38;;;;;;;26.05;38.62;100211.03;5028159;28;20049;-59
2021/09/19 07:49:54;;;;;;;4.07;2.60;;;;;;;25.67;39.82;100209.00;5032158;28;20064;-60
2021/09/19 07:52:22;;;;;;;5.07;3.03;;;;;;;25.34;40.47;100207.72;5033838;28;20053;-60
2021/09/19 07:54:49;;;;;;;3.72;2.60;;;;;;;25.03;41.00;100206.75;5033757;28;20049;-60
2021/09/19 07:57:16;;;;;;;4.03;3.17;;;;;;;24.77;41.91;100209.00;5036464;28;20053;-60
2021/09/19 07:59:44;;;;;;;4.18;2.97;;;;;;;24.43;43.25;100218.13;5036045;28;20061;-60
2021/09/19 08:02:13;;;;;;;4.30;3.10;;;;;;;24.05;43.59;100214.28;5035957;28;20057;-60
2021/09/19 08:04:40;;;;;;;4.57;3.33;;;;;;;23.58;45.31;100216.44;5040384;28;20417;-60
2021/09/19 08:07:07;;;;;;;4.75;3.15;;;;;;;23.59;45.90;100209.53;5031194;28;20049;-60
2021/09/19 08:09:35;;;;;;;4.90;3.03;;;;;;;23.40;46.68;100211.59;5033090;28;20045;-60
2021/09/19 08:12:03;;;;;;;3.33;2.90;;;;;;;23.21;47.14;100220.56;5035147;28;20490;-59
2021/09/19 08:14:30;;;;;;;4.38;2.95;;;;;;;23.04;47.25;100236.41;5020105;28;20065;-59
2021/09/19 08:16:59;;;;;;;3.10;2.80;;;;;;;23.00;47.71;100232.72;5034028;28;20061;-59
2021/09/19 08:19:28;;;;;;;4.28;2.47;;;;;;;22.79;48.11;100236.34;5033701;28;20482;-59
2021/09/19 08:21:56;;;;;;;2.88;2.60;;;;;;;22.70;47.93;100236.75;5035149;28;20049;-59
2021/09/19 08:24:23;;;;;;;3.13;2.83;;;;;;;22.65;48.02;100237.94;5031407;28;20056;-58
2021/09/19 08:26:51;;;;;;;3.45;2.78;;;;;;;22.51;48.39;100237.94;5033390;28;20056;-59
2021/09/19 08:29:19;;;;;;;4.40;2.80;;;;;;;22.58;48.47;100243.63;5035680;28;20064;-58
2021/09/19 08:31:46;;;;;;;3.40;2.80;;;;;;;22.66;48.31;100239.56;5036006;28;20412;-58
2021/09/19 08:34:14;;;;;;;2.83;2.53;;;;;;;22.65;48.08;100242.81;5033875;28;20056;-60
2021/09/19 08:36:43;;;;;;;4.15;2.90;;;;;;;22.79;47.90;100242.84;5034130;28;20486;-60
2021/09/19 08:39:10;;;;;;;3.45;2.63;;;;;;;22.68;48.23;100250.53;5031649;28;20045;-55
2021/09/19 08:41:38;;;;;;;4.63;3.47;;;;;;;22.61;47.84;100251.31;5031838;28;20438;-61
2021/09/19 08:44:06;;;;;;;3.67;2.88;;;;;;;22.67;49.44;100255.38;5034407;28;20057;-61
2021/09/19 08:46:35;;;;;;;3.75;2.78;;;;;;;22.94;48.90;100245.69;5035751;28;20049;-60
2021/09/19 08:49:02;;;;;;;3.30;2.75;;;;;;;23.05;47.53;100250.19;5035803;28;20482;-59
2021/09/19 08:51:30;;;;;;;3.75;2.80;;;;;;;23.00;47.83;100247.72;5034261;28;20518;-59
2021/09/19 08:53:59;;;;;;;3.60;3.25;;;;;;;23.18;47.38;100252.63;5035159;28;20100;-59
2021/09/19 08:56:28;;;;;;;4.00;3.13;;;;;;;23.20;47.14;100253.81;5035139;28;20060;-59
2021/09/19 08:58:56;;;;;;;5.73;3.60;;;;;;;23.05;47.31;100261.53;5034932;28;20060;-57
2021/09/19 09:01:24;;;;;;;3.83;3.33;;;;;;;23.00;47.21;100264.75;5034777;28;20152;-58
2021/09/19 09:03:51;;;;;;;4.22;3.72;;;;;;;23.08;47.94;100262.78;5034111;28;20053;-58
2021/09/19 09:06:20;;;;;;;4.10;3.70;;;;;;;23.09;47.01;100268.03;5033889;28;20057;-59
2021/09/19 09:08:48;;;;;;;5.40;4.25;;;;;;;23.14;47.10;100261.16;5035085;28;20084;-59
2021/09/19 09:11:17;;;;;;;4.72;4.00;;;;;;;23.09;46.98;100262.34;5034811;28;20050;-60
2021/09/19 09:13:44;;;;;;;4.00;3.60;;;;;;;23.28;46.37;100249.75;5034216;28;20057;-60
2021/09/19 09:16:14;;;;;;;4.15;3.33;;;;;;;23.56;46.78;100252.97;5019491;28;20050;-58
2021/09/19 09:18:44;;;;;;;4.07;3.53;;;;;;;23.71;45.09;100252.56;5014906;28;20050;-57
2021/09/19 09:21:13;;;;;;;4.47;4.07;;;;;;;23.53;43.55;100250.97;5014722;28;20065;-60
2021/09/19 09:23:43;;;;;;;4.10;3.70;;;;;;;23.53;43.46;100253.81;5018406;28;20053;-59
2021/09/19 09:26:17;;;;;;;5.10;3.70;;;;;;;23.51;44.73;100255.03;5034591;28;20430;-59
2021/09/19 09:28:47;;;;;;;4.18;3.78;;;;;;;23.36;43.54;100256.28;5034339;28;20057;-59
2021/09/19 09:31:20;;;;;;;4.03;3.67;;;;;;;23.19;43.48;100255.06;5034583;28;20053;-59
2021/09/19 09:33:57;;;;;;;4.00;3.70;;;;;;;22.99;44.12;100260.28;5034820;28;20402;-60
2021/09/19 09:36:35;;;;;;;4.53;3.97;;;;;;;22.74;44.35;100265.97;5034451;28;20417;-59
2021/09/19 09:39:21;;;;;;;4.72;4.05;;;;;;;23.08;44.36;100265.63;5033774;28;20053;-58
2021/09/19 09:41:55;;;;;;;4.88;3.88;;;;;;;23.10;43.82;100269.69;5034084;28;20490;-59
2021/09/19 09:44:30;;;;;;;4.47;4.07;;;;;;;22.82;44.47;100261.09;5034843;28;20091;-59
2021/09/19 09:46:59;;;;;;;4.55;4.07;;;;;;;22.75;44.54;100263.94;5034091;28;20054;-58
2021/09/19 09:49:45;;;;;;;4.47;4.07;;;;;;;22.91;44.58;100267.22;5033620;28;20050;-59
2021/09/19 09:52:19;;;;;;;4.15;3.75;;;;;;;23.22;44.41;100259.91;5033796;28;20053;-59
2021/09/19 09:54:49;;;;;;;4.28;3.88;;;;;;;23.56;43.01;100244.44;5033462;28;20049;-57
2021/09/19 09:57:33;;;;;;;4.45;3.83;;;;;;;23.64;41.68;100251.75;5034001;28;20053;-57
2021/09/19 10:00:01;;;;;;;4.03;3.40;;;;;;;23.61;41.64;100252.59;5030311;28;20053;-54
2021/09/19 10:02:29;;;;;;;3.92;3.38;;;;;;;23.00;43.36;100252.59;5033579;28;20049;-61
2021/09/19 10:04:57;;;;;;;3.75;3.40;;;;;;;23.05;43.46;100261.53;5031343;28;20053;-61
2021/09/19 10:07:25;;;;;;;3.83;3.17;;;;;;;23.37;44.53;100257.91;5046488;28;20053;-62
2021/09/19 10:09:53;;;;;;;3.65;3.05;;;;;;;23.60;43.62;100250.94;5031647;28;20060;-60
2021/09/19 10:12:22;;;;;;;4.28;3.70;;;;;;;23.81;44.20;100256.63;5031624;28;20501;-61
2021/09/19 10:14:51;;;;;;;4.68;3.60;;;;;;;23.84;45.34;100264.34;5032300;28;20052;-60
2021/09/19 10:17:19;;;;;;;5.18;4.18;;;;;;;23.88;45.15;100256.59;5030464;28;20061;-60
2021/09/19 10:19:47;;;;;;;4.20;3.80;;;;;;;23.87;44.68;100257.00;5021146;28;20057;-60
2021/09/19 10:22:22;;;;;;;3.43;3.13;;;;;;;23.72;45.54;100256.19;5030635;28;20064;-61
2021/09/19 10:24:49;;;;;;;4.85;3.30;;;;;;;23.60;44.38;100254.63;5028117;28;20470;-61
2021/09/19 10:27:22;;;;;;;3.50;3.20;;;;;;;23.40;45.70;100254.22;5034197;28;20053;-60
2021/09/19 10:29:58;;;;;;;3.67;3.17;;;;;;;23.37;44.95;100259.91;5033327;28;20057;-60
2021/09/19 10:32:36;;;;;;;3.45;2.80;;;;;;;22.80;44.42;100260.69;5033264;28;20050;-62
2021/09/19 10:35:13;;;;;;;4.00;2.70;;;;;;;22.57;44.23;100264.69;5032739;28;20060;-60
2021/09/19 10:37:53;;;;;;;3.05;2.45;;;;;;;22.57;43.68;100261.03;5033138;28;20053;-61
2021/09/19 10:40:32;;;;;;;4.15;2.80;;;;;;;22.39;44.16;100269.53;5032925;28;20060;-61
2021/09/19 10:42:59;;;;;;;3.70;2.35;;;;;;;22.31;44.18;100256.50;5033274;28;20057;-61
2021/09/19 10:45:39;;;;;;;2.80;2.30;;;;;;;22.13;44.37;100262.88;5033049;28;20056;-60
2021/09/19 10:48:15;;;;;;;3.72;2.65;;;;;;;22.14;45.03;100258.84;5032818;28;20054;-59
2021/09/19 10:50:44;;;;;;;5.43;2.70;;;;;;;22.18;45.63;100259.69;5032745;28;20132;-60
2021/09/19 10:53:23;;;;;;;2.92;2.38;;;;;;;22.17;44.39;100255.19;5033175;28;20053;-61
2021/09/19 10:55:56;;;;;;;3.60;2.70;;;;;;;22.09;45.06;100259.25;5032916;28;20049;-62
2021/09/19 10:58:26;;;;;;;3.13;2.35;;;;;;;22.17;45.49;100254.41;5032988;28;20080;-60
2021/09/19 11:01:12;;;;;;;2.38;2.13;;;;;;;22.46;44.75;100252.50;5032384;28;20053;-60
2021/09/19 11:03:41;;;;;;;3.15;2.38;;;;;;;22.75;45.80;100252.56;5032836;28;20490;-60
2021/09/19 11:06:22;;;;;;;2.42;2.00;;;;;;;22.79;44.52;100254.19;5032878;28;20049;-62
2021/09/19 11:08:50;;;;;;;3.03;2.50;;;;;;;22.61;44.98;100253.34;5032567;28;20057;-61
2021/09/19 11:11:39;;;;;;;3.35;2.20;;;;;;;22.22;44.57;100252.00;5032630;28;20053;-60
2021/09/19 11:14:07;;;;;;;2.67;2.30;;;;;;;22.24;44.81;100258.13;5028229;28;20061;-60
2021/09/19 11:16:40;;;;;;;2.80;2.10;;;;;;;22.02;44.46;100256.34;5032274;28;20375;-60
2021/09/19 11:19:11;;;;;;;2.30;1.95;;;;;;;21.84;45.95;100259.13;5032738;28;20053;-61
2021/09/19 11:21:47;;;;;;;3.28;2.00;;;;;;;21.88;45.64;100257.09;5032644;28;20053;-60
2021/09/19 11:24:19;;;;;;;2.72;2.30;;;;;;;21.78;45.80;100264.34;5032502;28;20053;-61
2021/09/19 11:26:51;;;;;;;3.00;2.08;;;;;;;21.61;46.19;100256.56;5032468;28;20046;-59
2021/09/19 11:29:23;;;;;;;3.58;2.40;;;;;;;21.27;46.39;100257.50;5036901;28;20061;-61
2021/09/19 11:31:54;;;;;;;3.40;2.10;;;;;;;21.20;47.21;100270.78;5036376;28;20066;-59
2021/09/19 11:34:24;;;;;;;2.88;2.10;;;;;;;21.30;47.31;100267.22;5035905;28;20049;-60